DTTJ/DJE METAR and TAF weather

Enter ICAO airport designator
Station Type Date Time Source
DTTJ METAR 2019/05/25 15:00 UTC NOAA

DTTJ 251500Z 34012KT 8000 FEW026 23/15 Q1007 NOSIG


Station Type Date Time Source
DTTJ Decoded METAR 2019/05/25 15:00 UTC NOAA

Djerba Mellita, Tunisia (DTTJ) 33-52N 010-46E 4M
May 25, 2019 - 11:00 AM EDT / 2019.05.25 1500 UTC
Wind: from the NNW (340 degrees) at 14 MPH (12 KT):0
Visibility: 4 mile(s):0
Sky conditions: mostly clear
Temperature: 73 F (23 C)
Dew Point: 59 F (15 C)
Relative Humidity: 60%
Pressure (altimeter): 29.74 in. Hg (1007 hPa)
ob: DTTJ 251500Z 34012KT 8000 FEW026 23/15 Q1007 NOSIG
cycle: 15

Station Type Date Time Source
DTTJ TAF 2019/05/25 12:27 UTC NOAA

TAF DTTJ 251100Z 2512/2612 06010KT 9999 FEW020
BECMG 2512/2514 36014KT PROB30
TEMPO 2512/2606 VRB15G27KT 4000 TS SHRA FEW026CB
BECMG 2520/2522 32012KT

Example: see airport list